aviador You're here:

SARI Decoded Metar

IGUAZU FALLS in ARGENTINA
Report Time2018-05-23 06:00:00
UTC Time2018-05-23 06:51:28
Flight Rules vfr VFR
Wind180° at 05 kt
W.Decomp.*RWY 13: 2.1 kt HW 4.5 kt RCW
W.Rank180° ranks 2
Current wind is below 180° avg. (6.8)
Visibility9999 m
Phenomena:N/A
Clouds:N/A
Expected CloudBase > 400 ft AGL from Temp-Dew spread
CeilingNone
Temp08°C (ISA -5)
Dew Point07°C (93% RH)
AAT5.5°C
QNH1021 hPa
Density Alt125 ft
Elevation886 ft
Report Wrong Elevation
Raw Report
SARI 230600Z 18005KT CAVOK 08/07 Q1021=

Extra information for SARI:More info

Metar Taf Metar & Taf Last 4 Metars F.Rules Stats Wind Profile Meteogram Temp Stats Airport Information Weather charts Add Link Nearby VenuesMetar ALERT Operation Metar Decoded Social comments